sensor_id;sensor_type;location;lat;lon;timestamp;noise_LAeq;noise_LA_min;noise_LA_max;noise_LA01;noise_LA95
37279;Laerm;7458;49.002;8.472;2023-04-08T00:00:06;43.09;35.04;51.13;;
37279;Laerm;7458;49.002;8.472;2023-04-08T00:02:32;42.99;34.31;51.44;;
37279;Laerm;7458;49.002;8.472;2023-04-08T00:04:59;43.44;33.90;51.57;;
37279;Laerm;7458;49.002;8.472;2023-04-08T00:07:25;43.80;35.04;51.82;;
37279;Laerm;7458;49.002;8.472;2023-04-08T00:09:51;43.32;33.90;51.82;;
37279;Laerm;7458;49.002;8.472;2023-04-08T00:12:17;43.93;34.31;51.72;;
37279;Laerm;7458;49.002;8.472;2023-04-08T00:14:42;43.67;35.04;52.04;;
37279;Laerm;7458;49.002;8.472;2023-04-08T00:17:08;43.65;34.31;53.63;;
37279;Laerm;7458;49.002;8.472;2023-04-08T00:19:34;43.66;35.66;51.96;;
37279;Laerm;7458;49.002;8.472;2023-04-08T00:21:59;43.46;35.36;51.57;;
37279;Laerm;7458;49.002;8.472;2023-04-08T00:24:25;51.52;35.94;67.60;;
37279;Laerm;7458;49.002;8.472;2023-04-08T00:26:52;44.19;36.69;52.11;;
37279;Laerm;7458;49.002;8.472;2023-04-08T00:29:17;43.62;35.94;51.90;;
37279;Laerm;7458;49.002;8.472;2023-04-08T00:31:43;43.45;34.69;51.70;;
37279;Laerm;7458;49.002;8.472;2023-04-08T00:34:09;45.71;37.70;58.15;;
37279;Laerm;7458;49.002;8.472;2023-04-08T00:36:34;43.83;34.31;52.44;;
37279;Laerm;7458;49.002;8.472;2023-04-08T00:39:01;43.92;34.69;52.39;;
37279;Laerm;7458;49.002;8.472;2023-04-08T00:41:28;44.46;35.94;52.41;;
37279;Laerm;7458;49.002;8.472;2023-04-08T00:43:54;44.08;36.20;51.31;;
37279;Laerm;7458;49.002;8.472;2023-04-08T00:46:21;44.37;34.69;51.71;;
37279;Laerm;7458;49.002;8.472;2023-04-08T00:48:46;43.54;35.04;51.81;;
37279;Laerm;7458;49.002;8.472;2023-04-08T00:51:12;43.82;36.20;52.25;;
37279;Laerm;7458;49.002;8.472;2023-04-08T00:53:38;43.81;35.36;51.53;;
37279;Laerm;7458;49.002;8.472;2023-04-08T00:56:05;44.01;36.45;51.72;;
37279;Laerm;7458;49.002;8.472;2023-04-08T00:58:31;44.59;35.36;52.37;;
37279;Laerm;7458;49.002;8.472;2023-04-08T01:01:13;43.66;35.36;52.24;;
37279;Laerm;7458;49.002;8.472;2023-04-08T01:04:06;43.99;36.20;52.13;;
37279;Laerm;7458;49.002;8.472;2023-04-08T01:06:53;44.28;36.45;54.65;;
37279;Laerm;7458;49.002;8.472;2023-04-08T01:09:27;46.85;34.69;60.68;;
37279;Laerm;7458;49.002;8.472;2023-04-08T01:11:55;43.37;33.90;51.66;;
37279;Laerm;7458;49.002;8.472;2023-04-08T01:14:27;43.76;35.04;51.55;;
37279;Laerm;7458;49.002;8.472;2023-04-08T01:16:57;44.08;35.66;51.72;;
37279;Laerm;7458;49.002;8.472;2023-04-08T01:19:34;43.81;33.97;51.80;;
37279;Laerm;7458;49.002;8.472;2023-04-08T01:22:28;43.67;35.66;51.55;;
37279;Laerm;7458;49.002;8.472;2023-04-08T01:25:04;43.58;35.36;51.64;;
37279;Laerm;7458;49.002;8.472;2023-04-08T01:27:32;43.93;35.04;52.19;;
37279;Laerm;7458;49.002;8.472;2023-04-08T01:30:03;46.42;38.05;57.17;;
37279;Laerm;7458;49.002;8.472;2023-04-08T01:32:32;44.57;37.70;53.12;;
37279;Laerm;7458;49.002;8.472;2023-04-08T01:35:01;44.23;37.52;51.97;;
37279;Laerm;7458;49.002;8.472;2023-04-08T01:37:29;44.09;37.70;51.62;;
37279;Laerm;7458;49.002;8.472;2023-04-08T01:39:56;44.12;37.32;51.61;;
37279;Laerm;7458;49.002;8.472;2023-04-08T01:42:24;44.21;35.66;51.87;;
37279;Laerm;7458;49.002;8.472;2023-04-08T01:44:56;44.31;36.69;51.62;;
37279;Laerm;7458;49.002;8.472;2023-04-08T01:47:23;43.86;36.45;51.67;;
37279;Laerm;7458;49.002;8.472;2023-04-08T01:49:51;43.15;34.69;51.72;;
37279;Laerm;7458;49.002;8.472;2023-04-08T01:52:19;42.92;34.69;51.54;;
37279;Laerm;7458;49.002;8.472;2023-04-08T01:54:47;43.00;34.31;51.48;;
37279;Laerm;7458;49.002;8.472;2023-04-08T01:57:47;43.54;35.36;51.58;;
37279;Laerm;7458;49.002;8.472;2023-04-08T02:00:18;43.20;34.69;50.88;;
37279;Laerm;7458;49.002;8.472;2023-04-08T02:02:47;43.50;34.69;60.21;;
37279;Laerm;7458;49.002;8.472;2023-04-08T02:05:13;43.15;34.69;51.39;;
37279;Laerm;7458;49.002;8.472;2023-04-08T02:07:39;42.89;34.31;51.77;;
37279;Laerm;7458;49.002;8.472;2023-04-08T02:10:06;43.60;34.31;57.48;;
37279;Laerm;7458;49.002;8.472;2023-04-08T02:12:33;43.41;34.31;51.81;;
37279;Laerm;7458;49.002;8.472;2023-04-08T02:14:59;43.93;33.44;56.03;;
37279;Laerm;7458;49.002;8.472;2023-04-08T02:20:09;43.69;35.04;53.36;;
37279;Laerm;7458;49.002;8.472;2023-04-08T02:25:16;47.87;34.31;65.05;;
37279;Laerm;7458;49.002;8.472;2023-04-08T02:27:45;49.45;35.66;66.39;;
37279;Laerm;7458;49.002;8.472;2023-04-08T02:30:15;49.92;35.94;66.93;;
37279;Laerm;7458;49.002;8.472;2023-04-08T02:32:43;48.44;35.04;66.09;;
37279;Laerm;7458;49.002;8.472;2023-04-08T02:35:12;48.91;35.36;64.63;;
37279;Laerm;7458;49.002;8.472;2023-04-08T02:37:39;49.43;35.94;66.51;;
37279;Laerm;7458;49.002;8.472;2023-04-08T02:40:27;50.51;34.69;67.45;;
37279;Laerm;7458;49.002;8.472;2023-04-08T02:42:54;49.42;34.69;65.71;;
37279;Laerm;7458;49.002;8.472;2023-04-08T02:45:20;49.28;33.90;65.57;;
37279;Laerm;7458;49.002;8.472;2023-04-08T02:47:46;51.26;35.36;68.93;;
37279;Laerm;7458;49.002;8.472;2023-04-08T02:50:13;51.36;35.36;66.42;;
37279;Laerm;7458;49.002;8.472;2023-04-08T02:52:38;50.82;35.66;66.98;;
37279;Laerm;7458;49.002;8.472;2023-04-08T02:55:05;51.56;37.52;69.32;;
37279;Laerm;7458;49.002;8.472;2023-04-08T02:57:35;51.52;37.32;69.73;;
37279;Laerm;7458;49.002;8.472;2023-04-08T03:00:05;51.49;36.69;69.32;;
37279;Laerm;7458;49.002;8.472;2023-04-08T03:02:32;51.75;37.12;67.71;;
37279;Laerm;7458;49.002;8.472;2023-04-08T03:04:58;52.39;37.12;69.73;;
37279;Laerm;7458;49.002;8.472;2023-04-08T03:07:24;52.48;38.52;68.53;;
37279;Laerm;7458;49.002;8.472;2023-04-08T03:09:50;58.57;37.32;75.72;;
37279;Laerm;7458;49.002;8.472;2023-04-08T03:12:16;52.31;38.81;69.96;;
37279;Laerm;7458;49.002;8.472;2023-04-08T03:14:42;52.48;38.37;69.43;;
37279;Laerm;7458;49.002;8.472;2023-04-08T03:17:08;53.63;39.70;69.88;;
37279;Laerm;7458;49.002;8.472;2023-04-08T03:19:34;53.61;39.08;70.09;;
37279;Laerm;7458;49.002;8.472;2023-04-08T03:21:59;54.10;38.81;69.43;;
37279;Laerm;7458;49.002;8.472;2023-04-08T03:24:26;53.70;38.95;69.57;;
37279;Laerm;7458;49.002;8.472;2023-04-08T03:26:51;54.01;39.08;71.11;;
37279;Laerm;7458;49.002;8.472;2023-04-08T03:29:17;51.11;39.58;68.71;;
37279;Laerm;7458;49.002;8.472;2023-04-08T03:31:43;50.59;39.34;70.59;;
37279;Laerm;7458;49.002;8.472;2023-04-08T03:34:09;54.26;38.37;70.52;;
37279;Laerm;7458;49.002;8.472;2023-04-08T03:36:36;54.24;37.70;70.29;;
37279;Laerm;7458;49.002;8.472;2023-04-08T03:39:01;53.86;37.88;71.47;;
37279;Laerm;7458;49.002;8.472;2023-04-08T03:41:28;50.90;39.78;67.72;;
37279;Laerm;7458;49.002;8.472;2023-04-08T03:43:56;54.25;38.67;72.11;;
37279;Laerm;7458;49.002;8.472;2023-04-08T03:46:22;54.51;37.88;72.67;;
37279;Laerm;7458;49.002;8.472;2023-04-08T03:48:48;54.45;39.70;71.35;;
37279;Laerm;7458;49.002;8.472;2023-04-08T03:51:14;52.97;38.95;71.83;;
37279;Laerm;7458;49.002;8.472;2023-04-08T03:53:40;53.75;38.05;70.27;;
37279;Laerm;7458;49.002;8.472;2023-04-08T03:56:06;54.57;39.46;70.33;;
37279;Laerm;7458;49.002;8.472;2023-04-08T03:58:32;55.97;38.21;70.58;;
37279;Laerm;7458;49.002;8.472;2023-04-08T04:00:58;52.53;38.81;70.00;;
37279;Laerm;7458;49.002;8.472;2023-04-08T04:03:25;49.08;38.95;61.89;;
37279;Laerm;7458;49.002;8.472;2023-04-08T04:05:50;48.93;39.46;61.00;;
37279;Laerm;7458;49.002;8.472;2023-04-08T04:08:16;49.25;41.53;60.12;;
37279;Laerm;7458;49.002;8.472;2023-04-08T04:10:42;52.51;40.13;71.87;;
37279;Laerm;7458;49.002;8.472;2023-04-08T04:13:07;53.11;41.06;68.15;;
37279;Laerm;7458;49.002;8.472;2023-04-08T04:15:38;49.61;40.98;59.12;;
37279;Laerm;7458;49.002;8.472;2023-04-08T04:18:05;49.42;41.61;58.24;;
37279;Laerm;7458;49.002;8.472;2023-04-08T04:20:31;48.07;40.33;64.36;;
37279;Laerm;7458;49.002;8.472;2023-04-08T04:22:57;54.15;40.80;70.77;;
37279;Laerm;7458;49.002;8.472;2023-04-08T04:25:23;47.98;41.14;57.28;;
37279;Laerm;7458;49.002;8.472;2023-04-08T04:27:49;48.44;40.33;58.15;;
37279;Laerm;7458;49.002;8.472;2023-04-08T04:30:15;49.46;39.21;58.17;;
37279;Laerm;7458;49.002;8.472;2023-04-08T04:32:42;48.96;39.46;62.70;;
37279;Laerm;7458;49.002;8.472;2023-04-08T04:35:11;52.74;38.95;67.72;;
37279;Laerm;7458;49.002;8.472;2023-04-08T04:37:38;50.52;39.08;68.12;;
37279;Laerm;7458;49.002;8.472;2023-04-08T04:40:05;46.54;39.70;61.56;;
37279;Laerm;7458;49.002;8.472;2023-04-08T04:42:31;48.80;39.21;69.03;;
37279;Laerm;7458;49.002;8.472;2023-04-08T04:44:58;47.12;39.21;63.84;;
37279;Laerm;7458;49.002;8.472;2023-04-08T04:47:24;50.67;42.35;65.06;;
37279;Laerm;7458;49.002;8.472;2023-04-08T04:49:50;49.81;42.29;70.25;;
37279;Laerm;7458;49.002;8.472;2023-04-08T04:52:16;46.86;41.53;55.35;;
37279;Laerm;7458;49.002;8.472;2023-04-08T04:54:42;47.43;42.03;60.50;;
37279;Laerm;7458;49.002;8.472;2023-04-08T04:57:08;57.34;41.11;75.31;;
37279;Laerm;7458;49.002;8.472;2023-04-08T04:59:35;47.58;41.82;58.34;;
37279;Laerm;7458;49.002;8.472;2023-04-08T05:02:02;47.68;41.53;62.39;;
37279;Laerm;7458;49.002;8.472;2023-04-08T05:04:28;48.06;42.16;57.44;;
37279;Laerm;7458;49.002;8.472;2023-04-08T05:06:54;59.26;42.53;76.24;;
37279;Laerm;7458;49.002;8.472;2023-04-08T05:09:20;46.92;41.53;57.15;;
37279;Laerm;7458;49.002;8.472;2023-04-08T05:11:46;49.62;41.30;65.27;;
37279;Laerm;7458;49.002;8.472;2023-04-08T05:14:12;53.38;42.98;67.52;;
37279;Laerm;7458;49.002;8.472;2023-04-08T05:16:37;49.77;41.14;63.56;;
37279;Laerm;7458;49.002;8.472;2023-04-08T05:19:03;51.58;42.47;68.78;;
37279;Laerm;7458;49.002;8.472;2023-04-08T05:21:30;47.51;42.13;64.07;;
37279;Laerm;7458;49.002;8.472;2023-04-08T05:23:57;48.31;42.65;59.91;;
37279;Laerm;7458;49.002;8.472;2023-04-08T05:26:23;46.83;41.96;60.45;;
37279;Laerm;7458;49.002;8.472;2023-04-08T05:28:49;49.28;41.82;63.94;;
37279;Laerm;7458;49.002;8.472;2023-04-08T05:31:19;52.73;41.53;71.67;;
37279;Laerm;7458;49.002;8.472;2023-04-08T05:33:46;48.47;42.82;60.45;;
37279;Laerm;7458;49.002;8.472;2023-04-08T05:36:13;51.81;42.35;67.42;;
37279;Laerm;7458;49.002;8.472;2023-04-08T05:38:39;52.98;43.09;69.30;;
37279;Laerm;7458;49.002;8.472;2023-04-08T05:41:07;51.08;44.27;65.46;;
37279;Laerm;7458;49.002;8.472;2023-04-08T05:43:33;48.70;42.65;61.07;;
37279;Laerm;7458;49.002;8.472;2023-04-08T05:45:59;50.14;41.46;65.11;;
37279;Laerm;7458;49.002;8.472;2023-04-08T05:48:25;53.70;42.41;71.36;;
37279;Laerm;7458;49.002;8.472;2023-04-08T05:50:51;49.09;42.59;64.52;;
37279;Laerm;7458;49.002;8.472;2023-04-08T05:53:17;51.49;42.59;67.53;;
37279;Laerm;7458;49.002;8.472;2023-04-08T05:55:42;46.78;41.75;57.20;;
37279;Laerm;7458;49.002;8.472;2023-04-08T05:58:08;53.47;42.35;69.73;;
37279;Laerm;7458;49.002;8.472;2023-04-08T06:00:34;51.16;41.38;66.62;;
37279;Laerm;7458;49.002;8.472;2023-04-08T06:03:00;51.80;42.09;67.33;;
37279;Laerm;7458;49.002;8.472;2023-04-08T06:05:26;55.45;43.14;74.87;;
37279;Laerm;7458;49.002;8.472;2023-04-08T06:07:52;53.49;41.22;70.55;;
37279;Laerm;7458;49.002;8.472;2023-04-08T06:10:18;52.81;42.53;70.41;;
37279;Laerm;7458;49.002;8.472;2023-04-08T06:12:44;51.71;44.51;70.48;;
37279;Laerm;7458;49.002;8.472;2023-04-08T06:15:10;52.42;43.63;70.46;;
37279;Laerm;7458;49.002;8.472;2023-04-08T06:17:37;52.50;43.77;67.75;;
37279;Laerm;7458;49.002;8.472;2023-04-08T06:20:04;53.54;43.39;70.81;;
37279;Laerm;7458;49.002;8.472;2023-04-08T06:22:31;52.25;41.82;68.00;;
37279;Laerm;7458;49.002;8.472;2023-04-08T06:24:57;55.45;42.35;70.57;;
37279;Laerm;7458;49.002;8.472;2023-04-08T06:27:22;50.72;42.85;65.04;;
37279;Laerm;7458;49.002;8.472;2023-04-08T06:29:48;50.41;40.88;65.38;;
37279;Laerm;7458;49.002;8.472;2023-04-08T06:32:14;50.19;41.55;67.17;;
37279;Laerm;7458;49.002;8.472;2023-04-08T06:34:40;52.29;41.30;67.92;;
37279;Laerm;7458;49.002;8.472;2023-04-08T06:37:06;56.09;41.14;74.21;;
37279;Laerm;7458;49.002;8.472;2023-04-08T06:39:32;50.64;40.33;67.32;;
37279;Laerm;7458;49.002;8.472;2023-04-08T06:41:58;52.70;41.75;68.00;;
37279;Laerm;7458;49.002;8.472;2023-04-08T06:44:24;52.72;41.53;70.21;;
37279;Laerm;7458;49.002;8.472;2023-04-08T06:46:49;53.51;44.03;67.70;;
37279;Laerm;7458;49.002;8.472;2023-04-08T06:49:15;49.96;41.14;64.34;;
37279;Laerm;7458;49.002;8.472;2023-04-08T06:51:41;57.28;41.53;75.51;;
37279;Laerm;7458;49.002;8.472;2023-04-08T06:54:07;52.24;43.49;65.81;;
37279;Laerm;7458;49.002;8.472;2023-04-08T06:56:35;55.37;41.89;68.99;;
37279;Laerm;7458;49.002;8.472;2023-04-08T06:59:01;58.60;41.82;77.79;;
37279;Laerm;7458;49.002;8.472;2023-04-08T07:01:28;53.56;40.13;69.16;;
37279;Laerm;7458;49.002;8.472;2023-04-08T07:03:53;46.51;41.30;53.91;;
37279;Laerm;7458;49.002;8.472;2023-04-08T07:06:22;60.32;43.19;75.84;;
37279;Laerm;7458;49.002;8.472;2023-04-08T07:08:48;54.35;41.06;71.61;;
37279;Laerm;7458;49.002;8.472;2023-04-08T07:11:14;60.69;41.82;79.18;;
37279;Laerm;7458;49.002;8.472;2023-04-08T07:13:40;83.64;43.19;110.18;;
37279;Laerm;7458;49.002;8.472;2023-04-08T07:16:06;50.14;43.34;74.61;;
37279;Laerm;7458;49.002;8.472;2023-04-08T07:18:32;54.96;43.49;75.38;;
37279;Laerm;7458;49.002;8.472;2023-04-08T07:20:58;55.37;42.47;69.95;;
37279;Laerm;7458;49.002;8.472;2023-04-08T07:23:26;56.48;41.75;73.74;;
37279;Laerm;7458;49.002;8.472;2023-04-08T07:25:52;53.75;41.82;72.80;;
37279;Laerm;7458;49.002;8.472;2023-04-08T07:28:21;50.31;42.95;63.65;;
37279;Laerm;7458;49.002;8.472;2023-04-08T07:30:46;54.03;43.90;68.14;;
37279;Laerm;7458;49.002;8.472;2023-04-08T07:33:13;56.00;41.46;75.30;;
37279;Laerm;7458;49.002;8.472;2023-04-08T07:35:40;53.21;42.22;68.65;;
37279;Laerm;7458;49.002;8.472;2023-04-08T07:38:07;55.87;42.79;70.44;;
37279;Laerm;7458;49.002;8.472;2023-04-08T07:40:36;52.05;42.82;66.82;;
37279;Laerm;7458;49.002;8.472;2023-04-08T07:43:02;50.89;43.54;65.67;;
37279;Laerm;7458;49.002;8.472;2023-04-08T07:45:27;58.32;43.14;73.17;;
37279;Laerm;7458;49.002;8.472;2023-04-08T07:47:53;48.20;41.68;63.77;;
37279;Laerm;7458;49.002;8.472;2023-04-08T07:50:19;60.00;43.04;79.34;;
37279;Laerm;7458;49.002;8.472;2023-04-08T07:52:45;54.79;42.47;81.74;;
37279;Laerm;7458;49.002;8.472;2023-04-08T07:55:11;53.33;43.63;66.85;;
37279;Laerm;7458;49.002;8.472;2023-04-08T07:57:36;54.75;43.54;70.56;;
37279;Laerm;7458;49.002;8.472;2023-04-08T08:00:02;56.39;42.98;71.75;;
37279;Laerm;7458;49.002;8.472;2023-04-08T08:02:29;59.30;41.75;77.15;;
37279;Laerm;7458;49.002;8.472;2023-04-08T08:04:55;55.77;43.86;72.76;;
37279;Laerm;7458;49.002;8.472;2023-04-08T08:07:20;53.56;43.39;77.99;;
37279;Laerm;7458;49.002;8.472;2023-04-08T08:09:46;50.18;43.04;63.26;;
37279;Laerm;7458;49.002;8.472;2023-04-08T08:12:12;51.16;43.24;71.92;;
37279;Laerm;7458;49.002;8.472;2023-04-08T08:14:37;56.91;43.99;74.05;;
37279;Laerm;7458;49.002;8.472;2023-04-08T08:17:03;57.31;43.63;74.96;;
37279;Laerm;7458;49.002;8.472;2023-04-08T08:19:29;60.47;43.14;75.85;;
37279;Laerm;7458;49.002;8.472;2023-04-08T08:21:55;51.20;44.51;66.15;;
37279;Laerm;7458;49.002;8.472;2023-04-08T08:24:21;57.21;44.97;68.81;;
37279;Laerm;7458;49.002;8.472;2023-04-08T08:26:47;63.02;44.97;84.07;;
37279;Laerm;7458;49.002;8.472;2023-04-08T08:29:13;53.66;43.54;68.65;;
37279;Laerm;7458;49.002;8.472;2023-04-08T08:31:39;57.04;42.93;74.10;;
37279;Laerm;7458;49.002;8.472;2023-04-08T08:34:05;47.23;41.75;57.01;;
37279;Laerm;7458;49.002;8.472;2023-04-08T08:36:31;56.60;42.22;72.38;;
37279;Laerm;7458;49.002;8.472;2023-04-08T08:38:56;54.76;42.09;76.75;;
37279;Laerm;7458;49.002;8.472;2023-04-08T08:41:22;58.98;42.59;76.38;;
37279;Laerm;7458;49.002;8.472;2023-04-08T08:43:48;51.77;39.34;71.31;;
37279;Laerm;7458;49.002;8.472;2023-04-08T08:46:16;55.98;40.89;71.20;;
37279;Laerm;7458;49.002;8.472;2023-04-08T08:48:43;65.34;42.03;96.98;;
37279;Laerm;7458;49.002;8.472;2023-04-08T08:51:12;56.12;42.82;69.95;;
37279;Laerm;7458;49.002;8.472;2023-04-08T08:53:38;52.66;40.13;67.56;;
37279;Laerm;7458;49.002;8.472;2023-04-08T08:56:09;55.95;40.89;69.93;;
37279;Laerm;7458;49.002;8.472;2023-04-08T08:58:35;55.74;42.65;73.98;;
37279;Laerm;7458;49.002;8.472;2023-04-08T09:01:56;55.83;43.72;75.13;;
37279;Laerm;7458;49.002;8.472;2023-04-08T09:04:19;57.78;42.65;72.66;;
37279;Laerm;7458;49.002;8.472;2023-04-08T09:07:08;55.82;42.82;72.04;;
37279;Laerm;7458;49.002;8.472;2023-04-08T09:09:50;53.17;42.82;67.60;;
37279;Laerm;7458;49.002;8.472;2023-04-08T09:12:17;57.74;42.41;73.95;;
37279;Laerm;7458;49.002;8.472;2023-04-08T09:14:43;53.60;43.29;71.93;;
37279;Laerm;7458;49.002;8.472;2023-04-08T09:17:09;55.11;43.14;71.34;;
37279;Laerm;7458;49.002;8.472;2023-04-08T09:19:35;54.67;42.59;72.06;;
37279;Laerm;7458;49.002;8.472;2023-04-08T09:22:10;57.12;42.09;73.51;;
37279;Laerm;7458;49.002;8.472;2023-04-08T09:24:37;54.96;41.33;71.63;;
37279;Laerm;7458;49.002;8.472;2023-04-08T09:27:03;58.08;40.98;78.16;;
37279;Laerm;7458;49.002;8.472;2023-04-08T09:29:30;57.87;41.89;79.28;;
37279;Laerm;7458;49.002;8.472;2023-04-08T09:31:58;57.62;44.07;70.20;;
37279;Laerm;7458;49.002;8.472;2023-04-08T09:34:26;53.11;43.63;68.81;;
37279;Laerm;7458;49.002;8.472;2023-04-08T09:36:54;53.55;42.47;67.02;;
37279;Laerm;7458;49.002;8.472;2023-04-08T09:39:20;55.60;42.03;66.69;;
37279;Laerm;7458;49.002;8.472;2023-04-08T09:41:51;55.72;43.19;71.78;;
37279;Laerm;7458;49.002;8.472;2023-04-08T09:44:19;55.98;42.41;69.73;;
37279;Laerm;7458;49.002;8.472;2023-04-08T09:49:43;54.54;43.72;70.28;;
37279;Laerm;7458;49.002;8.472;2023-04-08T09:55:26;53.55;43.14;76.34;;
37279;Laerm;7458;49.002;8.472;2023-04-08T09:58:00;57.38;43.94;75.40;;
37279;Laerm;7458;49.002;8.472;2023-04-08T10:00:46;54.67;42.76;70.23;;
37279;Laerm;7458;49.002;8.472;2023-04-08T10:03:29;58.81;43.04;74.43;;
37279;Laerm;7458;49.002;8.472;2023-04-08T10:06:00;53.65;43.39;66.60;;
37279;Laerm;7458;49.002;8.472;2023-04-08T10:08:26;60.84;42.93;77.24;;
37279;Laerm;7458;49.002;8.472;2023-04-08T10:10:53;52.28;40.43;71.32;;
37279;Laerm;7458;49.002;8.472;2023-04-08T10:13:21;51.04;42.03;66.76;;
37279;Laerm;7458;49.002;8.472;2023-04-08T10:15:47;57.48;41.68;75.17;;
37279;Laerm;7458;49.002;8.472;2023-04-08T10:20:39;52.66;41.38;66.16;;
37279;Laerm;7458;49.002;8.472;2023-04-08T10:23:07;63.81;41.53;85.44;;
37279;Laerm;7458;49.002;8.472;2023-04-08T10:25:44;79.06;41.82;104.63;;
37279;Laerm;7458;49.002;8.472;2023-04-08T10:30:38;55.39;41.61;72.28;;
37279;Laerm;7458;49.002;8.472;2023-04-08T10:33:33;58.99;42.76;78.53;;
37279;Laerm;7458;49.002;8.472;2023-04-08T10:36:10;53.37;40.23;66.39;;
37279;Laerm;7458;49.002;8.472;2023-04-08T10:38:38;66.00;42.82;85.80;;
37279;Laerm;7458;49.002;8.472;2023-04-08T10:41:04;57.31;40.43;73.07;;
37279;Laerm;7458;49.002;8.472;2023-04-08T10:43:34;54.01;43.09;79.39;;
37279;Laerm;7458;49.002;8.472;2023-04-08T10:46:01;56.05;41.68;71.82;;
37279;Laerm;7458;49.002;8.472;2023-04-08T10:48:28;53.10;41.06;68.68;;
37279;Laerm;7458;49.002;8.472;2023-04-08T10:51:03;56.63;41.30;74.18;;
37279;Laerm;7458;49.002;8.472;2023-04-08T10:56:13;53.70;42.22;69.23;;
37279;Laerm;7458;49.002;8.472;2023-04-08T10:58:52;57.05;43.90;73.99;;
37279;Laerm;7458;49.002;8.472;2023-04-08T11:01:19;48.17;41.30;69.62;;
37279;Laerm;7458;49.002;8.472;2023-04-08T11:03:45;51.88;40.98;65.66;;
37279;Laerm;7458;49.002;8.472;2023-04-08T11:06:11;52.10;42.16;68.46;;
37279;Laerm;7458;49.002;8.472;2023-04-08T11:08:37;57.63;43.09;78.63;;
37279;Laerm;7458;49.002;8.472;2023-04-08T11:11:05;52.28;43.44;64.96;;
37279;Laerm;7458;49.002;8.472;2023-04-08T11:13:36;53.99;41.96;66.59;;
37279;Laerm;7458;49.002;8.472;2023-04-08T11:16:05;57.18;43.63;72.10;;
37279;Laerm;7458;49.002;8.472;2023-04-08T11:18:33;54.74;43.29;68.55;;
37279;Laerm;7458;49.002;8.472;2023-04-08T11:20:59;54.45;43.72;68.39;;
37279;Laerm;7458;49.002;8.472;2023-04-08T11:23:26;59.65;43.44;80.75;;
37279;Laerm;7458;49.002;8.472;2023-04-08T11:25:53;52.52;43.86;65.31;;
37279;Laerm;7458;49.002;8.472;2023-04-08T11:28:19;50.04;43.44;69.14;;
37279;Laerm;7458;49.002;8.472;2023-04-08T11:30:46;55.31;42.71;72.76;;
37279;Laerm;7458;49.002;8.472;2023-04-08T11:33:13;56.57;42.82;74.67;;
37279;Laerm;7458;49.002;8.472;2023-04-08T11:35:42;54.17;43.49;66.99;;
37279;Laerm;7458;49.002;8.472;2023-04-08T11:38:11;55.36;44.11;72.73;;
37279;Laerm;7458;49.002;8.472;2023-04-08T11:40:37;53.12;42.59;75.62;;
37279;Laerm;7458;49.002;8.472;2023-04-08T11:43:11;56.55;43.68;72.14;;
37279;Laerm;7458;49.002;8.472;2023-04-08T11:45:38;49.89;41.89;65.21;;
37279;Laerm;7458;49.002;8.472;2023-04-08T11:48:11;52.50;42.06;66.51;;
37279;Laerm;7458;49.002;8.472;2023-04-08T11:50:39;55.27;42.88;70.79;;
37279;Laerm;7458;49.002;8.472;2023-04-08T11:53:24;55.33;42.36;71.28;;
37279;Laerm;7458;49.002;8.472;2023-04-08T11:55:50;59.08;41.96;77.69;;
37279;Laerm;7458;49.002;8.472;2023-04-08T11:58:17;59.62;43.58;78.73;;
37279;Laerm;7458;49.002;8.472;2023-04-08T12:00:43;54.39;43.34;68.68;;
37279;Laerm;7458;49.002;8.472;2023-04-08T12:03:10;57.52;43.94;69.82;;
37279;Laerm;7458;49.002;8.472;2023-04-08T12:05:38;53.20;43.33;68.98;;
37279;Laerm;7458;49.002;8.472;2023-04-08T12:08:04;54.60;42.82;69.34;;
37279;Laerm;7458;49.002;8.472;2023-04-08T12:10:29;59.53;42.53;75.01;;
37279;Laerm;7458;49.002;8.472;2023-04-08T12:12:55;55.36;42.93;69.75;;
37279;Laerm;7458;49.002;8.472;2023-04-08T12:15:21;52.72;43.72;69.15;;
37279;Laerm;7458;49.002;8.472;2023-04-08T12:17:47;52.14;42.41;68.21;;
37279;Laerm;7458;49.002;8.472;2023-04-08T12:20:13;57.54;42.41;77.02;;
37279;Laerm;7458;49.002;8.472;2023-04-08T12:22:39;62.96;43.39;81.36;;
37279;Laerm;7458;49.002;8.472;2023-04-08T12:25:05;54.91;41.68;69.92;;
37279;Laerm;7458;49.002;8.472;2023-04-08T12:27:31;54.33;43.39;72.80;;
37279;Laerm;7458;49.002;8.472;2023-04-08T12:30:02;53.56;43.39;66.60;;
37279;Laerm;7458;49.002;8.472;2023-04-08T12:32:28;62.69;42.93;89.61;;
37279;Laerm;7458;49.002;8.472;2023-04-08T12:34:54;52.71;43.49;66.60;;
37279;Laerm;7458;49.002;8.472;2023-04-08T12:37:20;52.82;42.59;65.99;;
37279;Laerm;7458;49.002;8.472;2023-04-08T12:39:46;55.40;43.29;70.74;;
37279;Laerm;7458;49.002;8.472;2023-04-08T12:42:13;50.44;43.04;66.21;;
37279;Laerm;7458;49.002;8.472;2023-04-08T12:44:38;51.11;42.22;65.72;;
37279;Laerm;7458;49.002;8.472;2023-04-08T12:47:04;53.93;41.46;67.43;;
37279;Laerm;7458;49.002;8.472;2023-04-08T12:49:30;49.10;42.16;63.67;;
37279;Laerm;7458;49.002;8.472;2023-04-08T12:51:56;57.19;42.29;75.27;;
37279;Laerm;7458;49.002;8.472;2023-04-08T12:54:22;54.63;42.74;68.82;;
37279;Laerm;7458;49.002;8.472;2023-04-08T12:56:48;68.32;43.09;85.25;;
37279;Laerm;7458;49.002;8.472;2023-04-08T12:59:14;48.86;42.59;70.33;;
37279;Laerm;7458;49.002;8.472;2023-04-08T13:01:40;58.23;42.29;74.13;;
37279;Laerm;7458;49.002;8.472;2023-04-08T13:04:07;53.48;42.98;68.45;;
37279;Laerm;7458;49.002;8.472;2023-04-08T13:06:32;52.58;43.34;68.54;;
37279;Laerm;7458;49.002;8.472;2023-04-08T13:08:58;52.74;41.55;70.20;;
37279;Laerm;7458;49.002;8.472;2023-04-08T13:11:24;52.38;43.14;62.99;;
37279;Laerm;7458;49.002;8.472;2023-04-08T13:13:50;55.25;42.03;71.09;;
37279;Laerm;7458;49.002;8.472;2023-04-08T13:16:16;61.77;44.23;84.12;;
37279;Laerm;7458;49.002;8.472;2023-04-08T13:18:42;55.69;43.19;84.35;;
37279;Laerm;7458;49.002;8.472;2023-04-08T13:21:08;54.42;43.09;76.97;;
37279;Laerm;7458;49.002;8.472;2023-04-08T13:23:34;54.65;42.71;71.11;;
37279;Laerm;7458;49.002;8.472;2023-04-08T13:26:00;58.45;43.24;79.00;;
37279;Laerm;7458;49.002;8.472;2023-04-08T13:28:26;54.96;44.11;79.87;;
37279;Laerm;7458;49.002;8.472;2023-04-08T13:30:51;53.93;44.69;66.80;;
37279;Laerm;7458;49.002;8.472;2023-04-08T13:33:18;81.88;44.83;107.29;;
37279;Laerm;7458;49.002;8.472;2023-04-08T13:35:44;54.29;42.98;71.25;;
37279;Laerm;7458;49.002;8.472;2023-04-08T13:38:10;51.89;43.34;76.49;;
37279;Laerm;7458;49.002;8.472;2023-04-08T13:40:36;58.09;43.72;83.39;;
37279;Laerm;7458;49.002;8.472;2023-04-08T13:43:02;55.37;40.71;82.66;;
37279;Laerm;7458;49.002;8.472;2023-04-08T13:45:28;54.32;42.47;78.26;;
37279;Laerm;7458;49.002;8.472;2023-04-08T13:47:53;54.22;42.93;74.83;;
37279;Laerm;7458;49.002;8.472;2023-04-08T13:50:19;53.38;41.38;72.60;;
37279;Laerm;7458;49.002;8.472;2023-04-08T13:52:45;53.11;41.53;73.86;;
37279;Laerm;7458;49.002;8.472;2023-04-08T13:55:11;54.51;42.76;69.50;;
37279;Laerm;7458;49.002;8.472;2023-04-08T13:57:37;55.58;42.35;71.92;;
37279;Laerm;7458;49.002;8.472;2023-04-08T14:00:03;60.36;41.68;79.17;;
37279;Laerm;7458;49.002;8.472;2023-04-08T14:02:29;73.68;42.35;91.34;;
37279;Laerm;7458;49.002;8.472;2023-04-08T14:04:56;48.46;39.92;60.59;;
37279;Laerm;7458;49.002;8.472;2023-04-08T14:07:22;56.32;40.33;69.26;;
37279;Laerm;7458;49.002;8.472;2023-04-08T14:09:48;54.66;41.89;71.24;;
37279;Laerm;7458;49.002;8.472;2023-04-08T14:12:14;50.40;41.61;67.97;;
37279;Laerm;7458;49.002;8.472;2023-04-08T14:14:40;51.70;42.82;65.53;;
37279;Laerm;7458;49.002;8.472;2023-04-08T14:17:06;55.64;40.43;71.10;;